X  Close Metar Aviation Weather Data     LEGR F.G.L. Airport Granada-Jaén Airport
Temperature
9°C Temperature
2°C Dewpoint
62% Humidity



Wind
10 KM/H
6 MPH
3 M/S
5 KTS



270°
W
Current Conditions

Clear Clear
Pressure 1017.95 (hPa) - 30.06 (inHg)
Visibility 6 (mile) - 9.7 (km)
Airport
Airport-code LEGR

Location: F.G.L. Airport Granada-Jaén Airport
Distance: 138 (km)

Metar:
LEGR 011900Z 27005KT CAVOK 09/02 Q1018

Time: 01-03-2024 20:00 CET